Oak Island, Minnesota
Current Conditions -  °F | °C
As of 9:34 PM on Monday 20 Oct 2014 (Local Time) from KFGN Reporting Station
Clear Clear  
Wind Chill: 41°   Ceiling: Unl
Heat Index: 45°   Visibility: 10mi
Dew Point: 37°   Wind: 6mph
Humidity: 76%   Direction: 110°ESE
Pressure: 30.09"   Gusts: NA
Location:  49.3°N, 94.86°W
Report Text: KFGN 210234Z AUTO 11005KT 10SM CLR 07/03 A3009 RMK AO2
Loading
Personal Weather Stations






























Interactive Weather Map
Tropical Storm Tracking
New forecast layout! Learn more

10-Day Weather Forecast

Advertisements
Track Severe Weather on mobile